sensor_id;sensor_type;location;lat;lon;timestamp;pressure;altitude;pressure_sealevel;temperature;humidity
25232;BME280;13176;51.140;6.290;2024-01-30T00:02:18;101947.19;;;10.44;81.48
25232;BME280;13176;51.140;6.290;2024-01-30T00:04:45;102010.13;;;10.86;81.61
25232;BME280;13176;51.140;6.290;2024-01-30T00:07:12;102004.81;;;10.74;81.65
25232;BME280;13176;51.140;6.290;2024-01-30T00:09:39;102015.34;;;10.86;81.43
25232;BME280;13176;51.140;6.290;2024-01-30T00:12:06;101858.13;;;9.97;81.36
25232;BME280;13176;51.140;6.290;2024-01-30T00:14:33;101966.50;;;10.70;81.46
25232;BME280;13176;51.140;6.290;2024-01-30T00:16:59;101924.63;;;10.49;81.25
25232;BME280;13176;51.140;6.290;2024-01-30T00:19:26;101796.31;;;9.75;81.04
25232;BME280;13176;51.140;6.290;2024-01-30T00:21:52;101973.63;;;11.01;80.85
25232;BME280;13176;51.140;6.290;2024-01-30T00:24:19;101889.81;;;10.47;80.50
25232;BME280;13176;51.140;6.290;2024-01-30T00:26:46;101749.38;;;9.72;80.96
25232;BME280;13176;51.140;6.290;2024-01-30T00:29:12;102004.16;;;11.13;81.27
25232;BME280;13176;51.140;6.290;2024-01-30T00:31:47;101987.59;;;11.05;81.01
25232;BME280;13176;51.140;6.290;2024-01-30T00:34:14;101809.59;;;10.11;80.39
25232;BME280;13176;51.140;6.290;2024-01-30T00:36:41;101978.91;;;11.07;80.39
25232;BME280;13176;51.140;6.290;2024-01-30T00:39:07;101984.09;;;11.04;80.65
25232;BME280;13176;51.140;6.290;2024-01-30T00:41:36;101911.56;;;10.51;81.05
25232;BME280;13176;51.140;6.290;2024-01-30T00:44:03;101986.63;;;10.88;81.28
25232;BME280;13176;51.140;6.290;2024-01-30T00:46:29;101973.53;;;10.80;81.06
25232;BME280;13176;51.140;6.290;2024-01-30T00:48:56;101821.53;;;9.85;81.71
25232;BME280;13176;51.140;6.290;2024-01-30T00:51:22;101987.44;;;10.76;81.64
25232;BME280;13176;51.140;6.290;2024-01-30T00:53:49;101996.16;;;10.81;81.49
25232;BME280;13176;51.140;6.290;2024-01-30T00:56:16;101991.81;;;10.82;81.34
25232;BME280;13176;51.140;6.290;2024-01-30T00:58:44;101889.66;;;10.26;81.11
25232;BME280;13176;51.140;6.290;2024-01-30T01:01:11;101819.81;;;9.87;80.92
25232;BME280;13176;51.140;6.290;2024-01-30T01:03:37;101948.25;;;10.73;80.51
25232;BME280;13176;51.140;6.290;2024-01-30T01:06:04;102007.63;;;11.03;81.09
25232;BME280;13176;51.140;6.290;2024-01-30T01:08:31;101869.75;;;10.39;80.45
25232;BME280;13176;51.140;6.290;2024-01-30T01:10:57;101832.13;;;10.00;80.44
25232;BME280;13176;51.140;6.290;2024-01-30T01:13:24;101847.91;;;10.20;80.90
25232;BME280;13176;51.140;6.290;2024-01-30T01:15:50;101959.63;;;10.84;80.78
25232;BME280;13176;51.140;6.290;2024-01-30T01:18:19;101975.31;;;10.93;81.02
25232;BME280;13176;51.140;6.290;2024-01-30T01:20:46;101996.34;;;11.11;80.55
25232;BME280;13176;51.140;6.290;2024-01-30T01:23:12;101965.81;;;11.00;80.57
25232;BME280;13176;51.140;6.290;2024-01-30T01:25:39;101957.84;;;10.77;80.30
25232;BME280;13176;51.140;6.290;2024-01-30T01:28:05;102011.97;;;11.05;80.47
25232;BME280;13176;51.140;6.290;2024-01-30T01:30:32;101980.59;;;11.02;80.27
25232;BME280;13176;51.140;6.290;2024-01-30T01:33:01;101990.16;;;11.00;79.92
25232;BME280;13176;51.140;6.290;2024-01-30T01:35:29;101777.91;;;9.55;80.09
25232;BME280;13176;51.140;6.290;2024-01-30T01:37:55;101992.72;;;10.88;80.89
25232;BME280;13176;51.140;6.290;2024-01-30T01:40:27;102008.44;;;10.97;80.53
25232;BME280;13176;51.140;6.290;2024-01-30T01:42:55;102001.47;;;10.96;81.09
25232;BME280;13176;51.140;6.290;2024-01-30T01:45:22;101997.09;;;10.89;80.46
25232;BME280;13176;51.140;6.290;2024-01-30T01:47:51;101958.81;;;10.96;80.21
25232;BME280;13176;51.140;6.290;2024-01-30T01:50:20;101991.13;;;11.14;80.06
25232;BME280;13176;51.140;6.290;2024-01-30T01:52:47;101945.72;;;10.85;80.24
25232;BME280;13176;51.140;6.290;2024-01-30T01:55:19;101869.72;;;10.31;80.39
25232;BME280;13176;51.140;6.290;2024-01-30T01:57:48;102001.56;;;11.11;80.23
25232;BME280;13176;51.140;6.290;2024-01-30T02:00:15;101979.75;;;11.11;80.27
25232;BME280;13176;51.140;6.290;2024-01-30T02:02:43;101985.91;;;11.14;79.79
25232;BME280;13176;51.140;6.290;2024-01-30T02:05:11;101875.94;;;10.51;80.07
25232;BME280;13176;51.140;6.290;2024-01-30T02:07:40;101962.31;;;11.02;80.12
25232;BME280;13176;51.140;6.290;2024-01-30T02:10:10;101952.72;;;10.89;80.08
25232;BME280;13176;51.140;6.290;2024-01-30T02:12:36;101979.69;;;10.97;80.20
25232;BME280;13176;51.140;6.290;2024-01-30T02:15:03;101956.97;;;10.75;80.35
25232;BME280;13176;51.140;6.290;2024-01-30T02:17:31;101839.13;;;10.08;80.83
25232;BME280;13176;51.140;6.290;2024-01-30T02:19:58;101963.91;;;10.70;81.38
25232;BME280;13176;51.140;6.290;2024-01-30T02:22:24;101729.06;;;9.29;81.11
25232;BME280;13176;51.140;6.290;2024-01-30T02:24:51;101785.69;;;9.52;81.42
25232;BME280;13176;51.140;6.290;2024-01-30T02:27:18;101853.88;;;10.06;81.41
25232;BME280;13176;51.140;6.290;2024-01-30T02:29:44;101901.03;;;10.33;81.29
25232;BME280;13176;51.140;6.290;2024-01-30T02:32:11;101795.44;;;9.76;81.28
25232;BME280;13176;51.140;6.290;2024-01-30T02:34:37;101824.19;;;9.86;81.07
25232;BME280;13176;51.140;6.290;2024-01-30T02:37:06;101774.25;;;9.34;81.76
25232;BME280;13176;51.140;6.290;2024-01-30T02:39:35;101737.72;;;9.25;81.75
25232;BME280;13176;51.140;6.290;2024-01-30T02:42:04;101826.81;;;9.91;81.73
25232;BME280;13176;51.140;6.290;2024-01-30T02:44:31;101914.97;;;10.38;81.74
25232;BME280;13176;51.140;6.290;2024-01-30T02:46:58;101957.88;;;10.80;81.59
25232;BME280;13176;51.140;6.290;2024-01-30T02:49:27;101907.25;;;10.57;81.52
25232;BME280;13176;51.140;6.290;2024-01-30T02:51:54;101889.78;;;10.41;81.42
25232;BME280;13176;51.140;6.290;2024-01-30T02:54:21;101946.47;;;10.66;81.32
25232;BME280;13176;51.140;6.290;2024-01-30T02:56:47;101884.59;;;10.44;81.20
25232;BME280;13176;51.140;6.290;2024-01-30T02:59:14;101950.09;;;10.89;80.91
25232;BME280;13176;51.140;6.290;2024-01-30T03:01:44;101924.75;;;10.75;80.85
25232;BME280;13176;51.140;6.290;2024-01-30T03:04:11;101923.00;;;10.72;81.11
25232;BME280;13176;51.140;6.290;2024-01-30T03:06:38;101930.81;;;10.69;80.92
25232;BME280;13176;51.140;6.290;2024-01-30T03:09:05;101826.06;;;10.01;80.95
25232;BME280;13176;51.140;6.290;2024-01-30T03:11:31;101886.34;;;10.45;81.08
25232;BME280;13176;51.140;6.290;2024-01-30T03:13:58;101888.84;;;10.33;81.23
25232;BME280;13176;51.140;6.290;2024-01-30T03:16:24;101934.97;;;10.37;81.57
25232;BME280;13176;51.140;6.290;2024-01-30T03:18:51;101837.19;;;9.85;81.79
25232;BME280;13176;51.140;6.290;2024-01-30T03:21:17;101858.13;;;9.97;82.02
25232;BME280;13176;51.140;6.290;2024-01-30T03:23:44;101930.66;;;10.44;81.72
25232;BME280;13176;51.140;6.290;2024-01-30T03:26:10;101947.25;;;10.50;81.88
25232;BME280;13176;51.140;6.290;2024-01-30T03:28:39;101927.13;;;10.33;81.78
25232;BME280;13176;51.140;6.290;2024-01-30T03:31:05;101830.22;;;9.78;82.28
25232;BME280;13176;51.140;6.290;2024-01-30T03:33:32;101922.69;;;10.24;82.22
25232;BME280;13176;51.140;6.290;2024-01-30T03:36:03;101823.13;;;9.65;81.95
25232;BME280;13176;51.140;6.290;2024-01-30T03:38:29;101925.25;;;10.13;82.31
25232;BME280;13176;51.140;6.290;2024-01-30T03:40:56;101934.84;;;10.22;82.40
25232;BME280;13176;51.140;6.290;2024-01-30T03:43:23;101819.75;;;9.76;81.61
25232;BME280;13176;51.140;6.290;2024-01-30T03:45:50;101916.53;;;10.15;81.83
25232;BME280;13176;51.140;6.290;2024-01-30T03:48:16;101927.97;;;10.30;81.93
25232;BME280;13176;51.140;6.290;2024-01-30T03:50:43;101804.16;;;9.81;81.37
25232;BME280;13176;51.140;6.290;2024-01-30T03:53:09;101907.19;;;10.47;81.77
25232;BME280;13176;51.140;6.290;2024-01-30T03:55:36;101920.31;;;10.54;81.35
25232;BME280;13176;51.140;6.290;2024-01-30T03:58:03;101905.53;;;10.59;81.55
25232;BME280;13176;51.140;6.290;2024-01-30T04:00:29;101903.72;;;10.46;81.60
25232;BME280;13176;51.140;6.290;2024-01-30T04:02:56;101900.22;;;10.41;81.69
25232;BME280;13176;51.140;6.290;2024-01-30T04:05:22;101903.69;;;10.40;81.76
25232;BME280;13176;51.140;6.290;2024-01-30T04:07:51;101910.72;;;10.50;81.39
25232;BME280;13176;51.140;6.290;2024-01-30T04:10:18;101728.22;;;9.31;81.10
25232;BME280;13176;51.140;6.290;2024-01-30T04:12:47;101908.88;;;10.33;80.98
25232;BME280;13176;51.140;6.290;2024-01-30T04:15:16;101620.22;;;8.79;81.12
25232;BME280;13176;51.140;6.290;2024-01-30T04:17:43;101854.84;;;10.16;81.07
25232;BME280;13176;51.140;6.290;2024-01-30T04:20:14;101782.44;;;9.80;81.63
25232;BME280;13176;51.140;6.290;2024-01-30T04:22:45;101917.75;;;10.66;81.36
25232;BME280;13176;51.140;6.290;2024-01-30T04:25:13;101884.66;;;10.53;81.16
25232;BME280;13176;51.140;6.290;2024-01-30T04:27:39;101793.78;;;9.90;82.29
25232;BME280;13176;51.140;6.290;2024-01-30T04:30:07;101895.00;;;10.41;81.90
25232;BME280;13176;51.140;6.290;2024-01-30T04:32:33;101800.75;;;9.91;82.27
25232;BME280;13176;51.140;6.290;2024-01-30T04:35:00;101916.06;;;10.74;81.80
25232;BME280;13176;51.140;6.290;2024-01-30T04:37:26;101818.28;;;10.07;81.25
25232;BME280;13176;51.140;6.290;2024-01-30T04:39:56;101762.44;;;9.78;81.94
25232;BME280;13176;51.140;6.290;2024-01-30T04:42:22;101857.56;;;10.36;81.96
25232;BME280;13176;51.140;6.290;2024-01-30T04:44:49;101899.50;;;10.65;81.90
25232;BME280;13176;51.140;6.290;2024-01-30T04:47:16;101900.31;;;10.59;82.07
25232;BME280;13176;51.140;6.290;2024-01-30T04:49:43;101863.59;;;10.26;82.45
25232;BME280;13176;51.140;6.290;2024-01-30T04:52:09;101757.28;;;9.90;81.82
25232;BME280;13176;51.140;6.290;2024-01-30T04:54:36;101640.47;;;9.20;81.51
25232;BME280;13176;51.140;6.290;2024-01-30T04:57:02;101746.75;;;9.72;81.50
25232;BME280;13176;51.140;6.290;2024-01-30T04:59:29;101725.81;;;9.60;83.23
25232;BME280;13176;51.140;6.290;2024-01-30T05:01:55;101902.91;;;10.56;82.48
25232;BME280;13176;51.140;6.290;2024-01-30T05:04:24;101889.81;;;10.47;82.31
25232;BME280;13176;51.140;6.290;2024-01-30T05:06:51;101899.44;;;10.57;82.11
25232;BME280;13176;51.140;6.290;2024-01-30T05:09:17;101894.16;;;10.45;82.53
25232;BME280;13176;51.140;6.290;2024-01-30T05:11:45;101872.38;;;10.40;81.99
25232;BME280;13176;51.140;6.290;2024-01-30T05:14:13;101903.78;;;10.52;81.29
25232;BME280;13176;51.140;6.290;2024-01-30T05:16:41;101903.00;;;10.71;81.50
25232;BME280;13176;51.140;6.290;2024-01-30T05:19:09;101882.91;;;10.61;81.38
25232;BME280;13176;51.140;6.290;2024-01-30T05:21:35;101697.94;;;9.44;81.13
25232;BME280;13176;51.140;6.290;2024-01-30T05:24:02;101866.31;;;10.41;81.60
25232;BME280;13176;51.140;6.290;2024-01-30T05:26:29;101888.09;;;10.54;81.97
25232;BME280;13176;51.140;6.290;2024-01-30T05:29:04;101883.69;;;10.42;81.84
25232;BME280;13176;51.140;6.290;2024-01-30T05:31:31;101898.59;;;10.61;82.02
25232;BME280;13176;51.140;6.290;2024-01-30T05:33:59;101873.19;;;10.29;81.97
25232;BME280;13176;51.140;6.290;2024-01-30T05:36:30;101894.13;;;10.44;81.97
25232;BME280;13176;51.140;6.290;2024-01-30T05:38:57;101713.56;;;9.47;82.19
25232;BME280;13176;51.140;6.290;2024-01-30T05:41:24;101836.56;;;10.13;82.52
25232;BME280;13176;51.140;6.290;2024-01-30T05:43:51;101587.16;;;8.69;82.19
25232;BME280;13176;51.140;6.290;2024-01-30T05:46:27;101708.38;;;9.44;82.81
25232;BME280;13176;51.140;6.290;2024-01-30T05:48:54;101803.38;;;9.97;83.17
25232;BME280;13176;51.140;6.290;2024-01-30T05:51:20;101709.25;;;9.47;82.78
25232;BME280;13176;51.140;6.290;2024-01-30T05:53:50;101820.09;;;10.17;83.17
25232;BME280;13176;51.140;6.290;2024-01-30T05:56:22;101738.13;;;9.80;82.93
25232;BME280;13176;51.140;6.290;2024-01-30T05:58:48;101731.09;;;9.69;82.68
25232;BME280;13176;51.140;6.290;2024-01-30T06:01:24;101680.56;;;9.44;82.52
25232;BME280;13176;51.140;6.290;2024-01-30T06:03:56;101616.13;;;9.15;82.92
25232;BME280;13176;51.140;6.290;2024-01-30T06:06:23;101828.91;;;10.39;82.59
25232;BME280;13176;51.140;6.290;2024-01-30T06:08:49;101698.84;;;9.50;83.06
25232;BME280;13176;51.140;6.290;2024-01-30T06:11:19;101806.19;;;10.23;82.86
25232;BME280;13176;51.140;6.290;2024-01-30T06:13:49;101881.22;;;10.66;83.82
25232;BME280;13176;51.140;6.290;2024-01-30T06:16:30;101727.72;;;9.85;83.50
25232;BME280;13176;51.140;6.290;2024-01-30T06:18:59;101855.03;;;10.45;83.83
25232;BME280;13176;51.140;6.290;2024-01-30T06:21:27;101695.47;;;9.65;83.12
25232;BME280;13176;51.140;6.290;2024-01-30T06:23:53;101637.94;;;9.29;83.11
25232;BME280;13176;51.140;6.290;2024-01-30T06:26:20;101857.63;;;10.45;82.90
25232;BME280;13176;51.140;6.290;2024-01-30T06:28:47;101832.31;;;10.32;82.89
25232;BME280;13176;51.140;6.290;2024-01-30T06:31:14;101885.53;;;10.60;82.95
25232;BME280;13176;51.140;6.290;2024-01-30T06:33:41;101621.38;;;9.21;82.87
25232;BME280;13176;51.140;6.290;2024-01-30T06:36:08;101605.69;;;9.12;82.72
25232;BME280;13176;51.140;6.290;2024-01-30T06:38:35;101875.97;;;10.63;83.01
25232;BME280;13176;51.140;6.290;2024-01-30T06:41:02;101659.75;;;9.46;82.65
25232;BME280;13176;51.140;6.290;2024-01-30T06:43:28;101874.19;;;10.56;83.28
25232;BME280;13176;51.140;6.290;2024-01-30T06:45:55;101697.22;;;9.69;83.07
25232;BME280;13176;51.140;6.290;2024-01-30T06:48:22;101865.50;;;10.60;83.27
25232;BME280;13176;51.140;6.290;2024-01-30T06:50:48;101800.97;;;10.18;83.08
25232;BME280;13176;51.140;6.290;2024-01-30T06:53:15;101884.75;;;10.74;83.71
25232;BME280;13176;51.140;6.290;2024-01-30T06:55:42;101852.47;;;10.59;83.70
25232;BME280;13176;51.140;6.290;2024-01-30T06:58:09;101880.34;;;10.67;83.54
25232;BME280;13176;51.140;6.290;2024-01-30T07:00:35;101844.63;;;10.51;83.79
25232;BME280;13176;51.140;6.290;2024-01-30T07:03:03;101882.13;;;10.73;83.67
25232;BME280;13176;51.140;6.290;2024-01-30T07:05:29;101875.94;;;10.60;83.63
25232;BME280;13176;51.140;6.290;2024-01-30T07:07:58;101869.03;;;10.65;83.82
25232;BME280;13176;51.140;6.290;2024-01-30T07:10:25;101874.28;;;10.71;83.39
25232;BME280;13176;51.140;6.290;2024-01-30T07:12:52;101882.06;;;10.61;83.83
25232;BME280;13176;51.140;6.290;2024-01-30T07:15:19;101595.28;;;9.09;83.29
25232;BME280;13176;51.140;6.290;2024-01-30T07:17:46;101753.84;;;9.94;83.81
25232;BME280;13176;51.140;6.290;2024-01-30T07:20:13;101889.03;;;10.65;84.12
25232;BME280;13176;51.140;6.290;2024-01-30T07:22:43;101902.91;;;10.58;84.04
25232;BME280;13176;51.140;6.290;2024-01-30T07:25:11;101736.38;;;9.78;83.57
25232;BME280;13176;51.140;6.290;2024-01-30T07:27:37;101916.94;;;10.78;83.77
25232;BME280;13176;51.140;6.290;2024-01-30T07:30:04;101900.28;;;10.56;83.76
25232;BME280;13176;51.140;6.290;2024-01-30T07:32:31;101710.91;;;9.36;83.89
25232;BME280;13176;51.140;6.290;2024-01-30T07:34:58;101780.69;;;9.84;83.98
25232;BME280;13176;51.140;6.290;2024-01-30T07:37:34;101605.63;;;8.97;83.80
25232;BME280;13176;51.140;6.290;2024-01-30T07:40:01;101795.69;;;10.09;84.11
25232;BME280;13176;51.140;6.290;2024-01-30T07:42:28;101651.78;;;9.25;84.09
25232;BME280;13176;51.140;6.290;2024-01-30T07:44:55;101788.69;;;10.02;84.14
25232;BME280;13176;51.140;6.290;2024-01-30T07:47:21;101927.38;;;10.78;84.16
25232;BME280;13176;51.140;6.290;2024-01-30T07:49:51;101910.84;;;10.74;83.94
25232;BME280;13176;51.140;6.290;2024-01-30T07:52:18;101836.63;;;10.24;83.99
25232;BME280;13176;51.140;6.290;2024-01-30T07:54:44;101643.91;;;9.16;84.25
25232;BME280;13176;51.140;6.290;2024-01-30T07:57:11;101764.22;;;9.88;84.15
25232;BME280;13176;51.140;6.290;2024-01-30T07:59:37;101933.41;;;10.66;84.36
25232;BME280;13176;51.140;6.290;2024-01-30T08:02:04;101818.34;;;10.21;84.16
25232;BME280;13176;51.140;6.290;2024-01-30T08:04:39;101845.31;;;10.23;84.31
25232;BME280;13176;51.140;6.290;2024-01-30T08:07:05;101944.88;;;10.91;84.30
25232;BME280;13176;51.140;6.290;2024-01-30T08:09:33;101937.91;;;10.88;84.41
25232;BME280;13176;51.140;6.290;2024-01-30T08:12:00;101813.97;;;10.12;83.83
25232;BME280;13176;51.140;6.290;2024-01-30T08:14:26;101930.00;;;10.79;84.45
25232;BME280;13176;51.140;6.290;2024-01-30T08:16:56;101937.84;;;10.84;84.35
25232;BME280;13176;51.140;6.290;2024-01-30T08:19:23;101934.41;;;10.86;84.18
25232;BME280;13176;51.140;6.290;2024-01-30T08:21:49;101788.53;;;9.87;84.37
25232;BME280;13176;51.140;6.290;2024-01-30T08:24:16;101978.84;;;10.92;84.94
25232;BME280;13176;51.140;6.290;2024-01-30T08:26:44;101954.34;;;10.72;84.88
25232;BME280;13176;51.140;6.290;2024-01-30T08:29:11;101801.56;;;9.87;85.03
25232;BME280;13176;51.140;6.290;2024-01-30T08:31:38;101875.72;;;10.19;85.19
25232;BME280;13176;51.140;6.290;2024-01-30T08:34:08;101840.94;;;10.17;85.13
25232;BME280;13176;51.140;6.290;2024-01-30T08:36:35;101828.56;;;9.92;85.12
25232;BME280;13176;51.140;6.290;2024-01-30T08:39:04;101952.59;;;10.71;85.25
25232;BME280;13176;51.140;6.290;2024-01-30T08:41:32;101894.91;;;10.25;85.17
25232;BME280;13176;51.140;6.290;2024-01-30T08:43:58;101976.13;;;10.79;85.37
25232;BME280;13176;51.140;6.290;2024-01-30T08:46:25;101998.84;;;10.92;85.67
25232;BME280;13176;51.140;6.290;2024-01-30T08:48:51;101988.38;;;10.92;85.25
25232;BME280;13176;51.140;6.290;2024-01-30T08:51:18;101984.06;;;10.92;85.40
25232;BME280;13176;51.140;6.290;2024-01-30T08:53:45;101971.88;;;10.91;85.74
25232;BME280;13176;51.140;6.290;2024-01-30T08:56:11;101943.91;;;10.74;86.19
25232;BME280;13176;51.140;6.290;2024-01-30T08:58:38;101987.59;;;11.06;86.23
25232;BME280;13176;51.140;6.290;2024-01-30T09:01:05;101906.44;;;10.67;85.87
25232;BME280;13176;51.140;6.290;2024-01-30T09:03:32;101966.75;;;11.15;85.99
25232;BME280;13176;51.140;6.290;2024-01-30T09:05:59;101998.16;;;11.24;85.42
25232;BME280;13176;51.140;6.290;2024-01-30T09:08:25;101964.09;;;11.06;85.94
25232;BME280;13176;51.140;6.290;2024-01-30T09:10:52;101828.81;;;10.26;85.51
25232;BME280;13176;51.140;6.290;2024-01-30T09:13:19;101939.72;;;11.12;85.77
25232;BME280;13176;51.140;6.290;2024-01-30T09:15:50;101870.84;;;10.78;85.83
25232;BME280;13176;51.140;6.290;2024-01-30T09:18:17;101960.72;;;11.30;85.88
25232;BME280;13176;51.140;6.290;2024-01-30T09:20:45;101979.00;;;11.37;86.47
25232;BME280;13176;51.140;6.290;2024-01-30T09:23:16;101974.78;;;11.57;86.15
25232;BME280;13176;51.140;6.290;2024-01-30T09:25:45;102002.69;;;11.73;86.32
25232;BME280;13176;51.140;6.290;2024-01-30T09:28:12;101792.53;;;10.84;85.81
25232;BME280;13176;51.140;6.290;2024-01-30T09:30:38;101994.91;;;12.00;85.89
25232;BME280;13176;51.140;6.290;2024-01-30T09:33:06;101954.78;;;12.04;85.86
25232;BME280;13176;51.140;6.290;2024-01-30T09:35:33;101943.47;;;11.96;86.61
25232;BME280;13176;51.140;6.290;2024-01-30T09:37:59;101973.13;;;12.34;85.89
25232;BME280;13176;51.140;6.290;2024-01-30T09:40:29;102004.53;;;12.38;86.25
25232;BME280;13176;51.140;6.290;2024-01-30T09:42:55;101857.97;;;11.53;88.03
25232;BME280;13176;51.140;6.290;2024-01-30T09:45:24;101964.41;;;12.15;87.65
25232;BME280;13176;51.140;6.290;2024-01-30T09:47:52;101993.19;;;12.32;89.29
25232;BME280;13176;51.140;6.290;2024-01-30T09:50:19;102020.19;;;12.65;88.95
25232;BME280;13176;51.140;6.290;2024-01-30T09:52:47;102008.88;;;12.73;88.78
25232;BME280;13176;51.140;6.290;2024-01-30T09:55:14;101997.53;;;12.55;89.79
25232;BME280;13176;51.140;6.290;2024-01-30T09:57:41;102001.88;;;12.72;90.72
25232;BME280;13176;51.140;6.290;2024-01-30T10:00:09;101921.59;;;12.45;89.86
25232;BME280;13176;51.140;6.290;2024-01-30T10:02:47;102001.84;;;12.96;89.91
25232;BME280;13176;51.140;6.290;2024-01-30T10:05:26;101894.59;;;12.28;89.79
25232;BME280;13176;51.140;6.290;2024-01-30T10:07:56;101780.44;;;11.46;91.35
25232;BME280;13176;51.140;6.290;2024-01-30T10:10:24;101995.66;;;13.23;89.26
25232;BME280;13176;51.140;6.290;2024-01-30T10:12:51;101942.44;;;13.10;87.88
25232;BME280;13176;51.140;6.290;2024-01-30T10:15:18;101769.09;;;12.01;87.67
25232;BME280;13176;51.140;6.290;2024-01-30T10:17:49;101799.53;;;12.20;87.71
25232;BME280;13176;51.140;6.290;2024-01-30T10:20:15;101782.09;;;12.16;87.27
25232;BME280;13176;51.140;6.290;2024-01-30T10:22:44;101985.81;;;13.68;85.42
25232;BME280;13176;51.140;6.290;2024-01-30T10:25:12;101747.19;;;12.24;85.46
25232;BME280;13176;51.140;6.290;2024-01-30T10:27:42;101905.75;;;13.04;86.62
25232;BME280;13176;51.140;6.290;2024-01-30T10:30:08;101998.81;;;13.86;84.58
25232;BME280;13176;51.140;6.290;2024-01-30T10:32:35;101916.94;;;13.38;84.87
25232;BME280;13176;51.140;6.290;2024-01-30T10:35:02;101926.53;;;13.43;85.01
25232;BME280;13176;51.140;6.290;2024-01-30T10:37:30;101992.69;;;13.88;85.29
25232;BME280;13176;51.140;6.290;2024-01-30T10:40:02;101856.69;;;13.27;83.50
25232;BME280;13176;51.140;6.290;2024-01-30T10:42:32;101769.63;;;12.77;82.73
25232;BME280;13176;51.140;6.290;2024-01-30T10:45:12;101930.44;;;14.07;81.78
25232;BME280;13176;51.140;6.290;2024-01-30T10:47:54;102004.56;;;14.42;81.78
25232;BME280;13176;51.140;6.290;2024-01-30T10:50:27;101763.50;;;12.83;83.16
25232;BME280;13176;51.140;6.290;2024-01-30T10:52:55;102020.56;;;14.06;84.67
25232;BME280;13176;51.140;6.290;2024-01-30T10:55:30;101765.22;;;12.91;82.86
25232;BME280;13176;51.140;6.290;2024-01-30T10:57:58;101907.16;;;13.65;83.03
25232;BME280;13176;51.140;6.290;2024-01-30T11:00:28;101859.16;;;13.53;82.16
25232;BME280;13176;51.140;6.290;2024-01-30T11:02:56;101790.47;;;13.01;82.88
25232;BME280;13176;51.140;6.290;2024-01-30T11:05:27;102008.28;;;14.11;84.24
25232;BME280;13176;51.140;6.290;2024-01-30T11:07:59;101964.63;;;13.98;83.60
25232;BME280;13176;51.140;6.290;2024-01-30T11:10:30;102023.88;;;14.38;82.70
25232;BME280;13176;51.140;6.290;2024-01-30T11:12:58;101905.56;;;13.43;84.82
25232;BME280;13176;51.140;6.290;2024-01-30T11:15:28;101922.91;;;13.59;84.93
25232;BME280;13176;51.140;6.290;2024-01-30T11:18:00;101987.34;;;14.02;84.60
25232;BME280;13176;51.140;6.290;2024-01-30T11:20:32;101776.56;;;12.90;84.47
25232;BME280;13176;51.140;6.290;2024-01-30T11:23:05;101988.97;;;14.22;84.32
25232;BME280;13176;51.140;6.290;2024-01-30T11:25:35;101925.31;;;13.93;83.60
25232;BME280;13176;51.140;6.290;2024-01-30T11:28:02;101864.50;;;13.35;85.14
25232;BME280;13176;51.140;6.290;2024-01-30T11:30:34;101983.72;;;14.21;84.21
25232;BME280;13176;51.140;6.290;2024-01-30T11:35:30;101772.19;;;12.86;84.92
25232;BME280;13176;51.140;6.290;2024-01-30T11:38:13;101928.78;;;13.98;84.91
25232;BME280;13176;51.140;6.290;2024-01-30T11:40:40;101896.66;;;13.65;83.77
25232;BME280;13176;51.140;6.290;2024-01-30T11:43:08;101892.44;;;13.46;86.34
25232;BME280;13176;51.140;6.290;2024-01-30T11:45:38;101908.69;;;13.90;85.03
25232;BME280;13176;51.140;6.290;2024-01-30T11:48:09;101938.59;;;13.68;86.09
25232;BME280;13176;51.140;6.290;2024-01-30T11:50:39;101760.69;;;13.14;84.42
25232;BME280;13176;51.140;6.290;2024-01-30T11:53:06;101872.19;;;13.63;84.91
25232;BME280;13176;51.140;6.290;2024-01-30T11:55:35;101773.66;;;13.32;83.29
25232;BME280;13176;51.140;6.290;2024-01-30T11:58:06;101778.22;;;13.09;84.69
25232;BME280;13176;51.140;6.290;2024-01-30T12:00:33;101904.19;;;14.10;83.39
25232;BME280;13176;51.140;6.290;2024-01-30T12:03:01;101865.25;;;13.58;85.50
25232;BME280;13176;51.140;6.290;2024-01-30T12:05:30;101987.16;;;14.32;85.15
25232;BME280;13176;51.140;6.290;2024-01-30T12:07:57;101742.44;;;13.02;84.87
25232;BME280;13176;51.140;6.290;2024-01-30T12:10:28;101877.94;;;14.08;83.58
25232;BME280;13176;51.140;6.290;2024-01-30T12:12:56;101961.38;;;14.73;82.96
25232;BME280;13176;51.140;6.290;2024-01-30T12:15:34;101906.91;;;13.98;84.10
25232;BME280;13176;51.140;6.290;2024-01-30T12:18:06;101766.09;;;12.90;86.70
25232;BME280;13176;51.140;6.290;2024-01-30T12:20:34;101997.59;;;14.38;85.17
25232;BME280;13176;51.140;6.290;2024-01-30T12:23:06;101772.84;;;13.24;84.71
25232;BME280;13176;51.140;6.290;2024-01-30T12:25:33;101890.50;;;13.72;85.96
25232;BME280;13176;51.140;6.290;2024-01-30T12:28:00;101845.84;;;13.78;84.12
25232;BME280;13176;51.140;6.290;2024-01-30T12:30:27;101984.41;;;14.42;85.29
25232;BME280;13176;51.140;6.290;2024-01-30T12:33:05;101751.19;;;12.98;84.71
25232;BME280;13176;51.140;6.290;2024-01-30T12:35:35;101978.38;;;14.33;85.39
25232;BME280;13176;51.140;6.290;2024-01-30T12:38:17;101874.66;;;13.82;84.81
25232;BME280;13176;51.140;6.290;2024-01-30T12:40:46;101919.72;;;14.37;84.03
25232;BME280;13176;51.140;6.290;2024-01-30T12:43:13;101894.56;;;14.07;83.96
25232;BME280;13176;51.140;6.290;2024-01-30T12:45:57;101976.66;;;14.33;85.25
25232;BME280;13176;51.140;6.290;2024-01-30T12:48:26;101948.88;;;14.01;86.45
25232;BME280;13176;51.140;6.290;2024-01-30T12:51:13;101870.44;;;13.62;86.13
25232;BME280;13176;51.140;6.290;2024-01-30T12:53:43;101866.00;;;13.71;85.95
25232;BME280;13176;51.140;6.290;2024-01-30T12:56:11;101943.53;;;14.16;85.44
25232;BME280;13176;51.140;6.290;2024-01-30T12:58:45;101781.63;;;13.17;85.91
25232;BME280;13176;51.140;6.290;2024-01-30T13:01:18;101825.19;;;13.39;85.85